sensor_id;sensor_type;location;lat;lon;timestamp;temperature;humidity
33139;DHT22;19501;50.948;5.316;2022-07-03T00:01:57;18.50;99.90
33139;DHT22;19501;50.948;5.316;2022-07-03T00:04:23;18.40;99.90
33139;DHT22;19501;50.948;5.316;2022-07-03T00:06:49;18.30;99.90
33139;DHT22;19501;50.948;5.316;2022-07-03T00:09:15;18.20;99.90
33139;DHT22;19501;50.948;5.316;2022-07-03T00:11:41;18.30;99.90
33139;DHT22;19501;50.948;5.316;2022-07-03T00:14:07;18.10;99.90
33139;DHT22;19501;50.948;5.316;2022-07-03T00:16:33;17.60;99.90
33139;DHT22;19501;50.948;5.316;2022-07-03T00:18:58;17.30;99.90
33139;DHT22;19501;50.948;5.316;2022-07-03T00:21:29;17.40;99.90
33139;DHT22;19501;50.948;5.316;2022-07-03T00:24:08;17.30;99.90
33139;DHT22;19501;50.948;5.316;2022-07-03T00:26:37;17.30;99.90
33139;DHT22;19501;50.948;5.316;2022-07-03T00:29:05;17.40;99.90
33139;DHT22;19501;50.948;5.316;2022-07-03T00:31:32;17.60;99.90
33139;DHT22;19501;50.948;5.316;2022-07-03T00:33:59;17.80;99.90
33139;DHT22;19501;50.948;5.316;2022-07-03T00:36:36;17.80;99.90
33139;DHT22;19501;50.948;5.316;2022-07-03T00:39:02;17.60;99.90
33139;DHT22;19501;50.948;5.316;2022-07-03T00:41:33;17.40;99.90
33139;DHT22;19501;50.948;5.316;2022-07-03T00:43:59;17.00;99.90
33139;DHT22;19501;50.948;5.316;2022-07-03T00:46:27;16.70;99.90
33139;DHT22;19501;50.948;5.316;2022-07-03T00:48:54;16.40;99.90
33139;DHT22;19501;50.948;5.316;2022-07-03T00:51:27;16.50;99.90
33139;DHT22;19501;50.948;5.316;2022-07-03T00:53:56;16.70;99.90
33139;DHT22;19501;50.948;5.316;2022-07-03T00:56:26;16.80;99.90
33139;DHT22;19501;50.948;5.316;2022-07-03T00:59:02;16.70;99.90
33139;DHT22;19501;50.948;5.316;2022-07-03T01:01:33;16.70;99.90
33139;DHT22;19501;50.948;5.316;2022-07-03T01:06:35;16.80;99.90
33139;DHT22;19501;50.948;5.316;2022-07-03T01:09:07;16.80;99.90
33139;DHT22;19501;50.948;5.316;2022-07-03T01:11:54;16.80;99.90
33139;DHT22;19501;50.948;5.316;2022-07-03T01:14:43;16.80;99.90
33139;DHT22;19501;50.948;5.316;2022-07-03T01:17:23;16.70;99.90
33139;DHT22;19501;50.948;5.316;2022-07-03T01:19:58;16.80;99.90
33139;DHT22;19501;50.948;5.316;2022-07-03T01:22:42;16.80;99.90
33139;DHT22;19501;50.948;5.316;2022-07-03T01:30:29;16.60;99.90
33139;DHT22;19501;50.948;5.316;2022-07-03T01:33:11;16.60;99.90
33139;DHT22;19501;50.948;5.316;2022-07-03T01:35:39;16.50;99.90
33139;DHT22;19501;50.948;5.316;2022-07-03T01:38:10;16.60;99.90
33139;DHT22;19501;50.948;5.316;2022-07-03T01:40:40;16.70;99.90
33139;DHT22;19501;50.948;5.316;2022-07-03T01:43:09;16.70;99.90
33139;DHT22;19501;50.948;5.316;2022-07-03T01:45:47;16.60;99.90
33139;DHT22;19501;50.948;5.316;2022-07-03T01:48:14;16.70;99.90
33139;DHT22;19501;50.948;5.316;2022-07-03T01:50:41;16.90;99.90
33139;DHT22;19501;50.948;5.316;2022-07-03T01:53:09;17.10;99.90
33139;DHT22;19501;50.948;5.316;2022-07-03T01:55:38;17.00;99.90
33139;DHT22;19501;50.948;5.316;2022-07-03T01:58:05;16.90;99.90
33139;DHT22;19501;50.948;5.316;2022-07-03T02:00:44;16.70;99.90
33139;DHT22;19501;50.948;5.316;2022-07-03T02:03:11;16.40;99.90
33139;DHT22;19501;50.948;5.316;2022-07-03T02:05:45;16.40;99.90
33139;DHT22;19501;50.948;5.316;2022-07-03T02:11:15;16.70;99.90
33139;DHT22;19501;50.948;5.316;2022-07-03T02:13:55;16.80;99.90
33139;DHT22;19501;50.948;5.316;2022-07-03T02:16:26;16.60;99.90
33139;DHT22;19501;50.948;5.316;2022-07-03T02:19:05;16.30;99.90
33139;DHT22;19501;50.948;5.316;2022-07-03T02:21:41;16.10;99.90
33139;DHT22;19501;50.948;5.316;2022-07-03T02:27:05;15.90;99.90
33139;DHT22;19501;50.948;5.316;2022-07-03T02:29:49;16.00;99.90
33139;DHT22;19501;50.948;5.316;2022-07-03T02:32:20;15.80;99.90
33139;DHT22;19501;50.948;5.316;2022-07-03T02:34:58;15.70;99.90
33139;DHT22;19501;50.948;5.316;2022-07-03T02:37:29;15.80;99.90
33139;DHT22;19501;50.948;5.316;2022-07-03T02:40:08;15.60;99.90
33139;DHT22;19501;50.948;5.316;2022-07-03T02:45:09;15.70;99.90
33139;DHT22;19501;50.948;5.316;2022-07-03T02:47:47;15.60;99.90
33139;DHT22;19501;50.948;5.316;2022-07-03T02:50:21;15.60;99.90
33139;DHT22;19501;50.948;5.316;2022-07-03T02:52:54;15.60;99.90
33139;DHT22;19501;50.948;5.316;2022-07-03T02:58:32;15.20;99.90
33139;DHT22;19501;50.948;5.316;2022-07-03T03:03:31;15.60;99.90
33139;DHT22;19501;50.948;5.316;2022-07-03T03:06:14;15.30;99.90
33139;DHT22;19501;50.948;5.316;2022-07-03T03:08:47;15.50;99.90
33139;DHT22;19501;50.948;5.316;2022-07-03T03:11:24;15.60;99.90
33139;DHT22;19501;50.948;5.316;2022-07-03T03:13:55;15.70;99.90
33139;DHT22;19501;50.948;5.316;2022-07-03T03:16:25;15.60;99.90
33139;DHT22;19501;50.948;5.316;2022-07-03T03:18:51;15.50;99.90
33139;DHT22;19501;50.948;5.316;2022-07-03T03:21:19;15.60;99.90
33139;DHT22;19501;50.948;5.316;2022-07-03T03:23:50;15.60;99.90
33139;DHT22;19501;50.948;5.316;2022-07-03T03:26:20;15.30;99.90
33139;DHT22;19501;50.948;5.316;2022-07-03T03:28:47;15.30;99.90
33139;DHT22;19501;50.948;5.316;2022-07-03T03:31:16;15.40;99.90
33139;DHT22;19501;50.948;5.316;2022-07-03T03:33:45;15.40;99.90
33139;DHT22;19501;50.948;5.316;2022-07-03T03:36:13;15.20;99.90
33139;DHT22;19501;50.948;5.316;2022-07-03T03:38:39;15.30;99.90
33139;DHT22;19501;50.948;5.316;2022-07-03T03:41:06;15.20;99.90
33139;DHT22;19501;50.948;5.316;2022-07-03T03:43:33;15.30;99.90
33139;DHT22;19501;50.948;5.316;2022-07-03T03:46:00;15.00;99.90
33139;DHT22;19501;50.948;5.316;2022-07-03T03:48:33;15.10;99.90
33139;DHT22;19501;50.948;5.316;2022-07-03T03:51:00;15.10;99.90
33139;DHT22;19501;50.948;5.316;2022-07-03T03:53:29;15.20;99.90
33139;DHT22;19501;50.948;5.316;2022-07-03T03:56:09;15.50;99.90
33139;DHT22;19501;50.948;5.316;2022-07-03T03:58:37;15.60;99.90
33139;DHT22;19501;50.948;5.316;2022-07-03T04:01:06;15.60;99.90
33139;DHT22;19501;50.948;5.316;2022-07-03T04:03:33;15.70;99.90
33139;DHT22;19501;50.948;5.316;2022-07-03T04:06:00;15.60;99.90
33139;DHT22;19501;50.948;5.316;2022-07-03T04:08:26;15.60;99.90
33139;DHT22;19501;50.948;5.316;2022-07-03T04:10:52;15.50;99.90
33139;DHT22;19501;50.948;5.316;2022-07-03T04:13:19;15.40;99.90
33139;DHT22;19501;50.948;5.316;2022-07-03T04:15:45;15.30;99.90
33139;DHT22;19501;50.948;5.316;2022-07-03T04:18:11;15.40;99.90
33139;DHT22;19501;50.948;5.316;2022-07-03T04:20:37;15.30;99.90
33139;DHT22;19501;50.948;5.316;2022-07-03T04:23:05;15.50;99.90
33139;DHT22;19501;50.948;5.316;2022-07-03T04:25:31;15.60;99.90
33139;DHT22;19501;50.948;5.316;2022-07-03T04:27:57;15.80;99.90
33139;DHT22;19501;50.948;5.316;2022-07-03T04:30:23;15.80;99.90
33139;DHT22;19501;50.948;5.316;2022-07-03T04:32:49;15.90;99.90
33139;DHT22;19501;50.948;5.316;2022-07-03T04:35:16;16.00;99.90
33139;DHT22;19501;50.948;5.316;2022-07-03T04:37:42;16.10;99.90
33139;DHT22;19501;50.948;5.316;2022-07-03T04:40:13;16.20;99.90
33139;DHT22;19501;50.948;5.316;2022-07-03T04:42:39;16.30;99.90
33139;DHT22;19501;50.948;5.316;2022-07-03T04:45:05;16.30;99.90
33139;DHT22;19501;50.948;5.316;2022-07-03T04:47:31;16.20;99.90
33139;DHT22;19501;50.948;5.316;2022-07-03T04:49:57;16.10;99.90
33139;DHT22;19501;50.948;5.316;2022-07-03T04:52:23;16.20;99.90
33139;DHT22;19501;50.948;5.316;2022-07-03T04:54:48;16.20;99.90
33139;DHT22;19501;50.948;5.316;2022-07-03T04:57:14;16.10;99.90
33139;DHT22;19501;50.948;5.316;2022-07-03T04:59:40;16.20;99.90
33139;DHT22;19501;50.948;5.316;2022-07-03T05:02:06;16.20;99.90
33139;DHT22;19501;50.948;5.316;2022-07-03T05:04:32;16.30;99.90
33139;DHT22;19501;50.948;5.316;2022-07-03T05:06:58;16.40;99.90
33139;DHT22;19501;50.948;5.316;2022-07-03T05:09:23;16.40;99.90
33139;DHT22;19501;50.948;5.316;2022-07-03T05:11:49;16.40;99.90
33139;DHT22;19501;50.948;5.316;2022-07-03T05:14:15;16.40;99.90
33139;DHT22;19501;50.948;5.316;2022-07-03T05:16:43;16.40;99.90
33139;DHT22;19501;50.948;5.316;2022-07-03T05:19:09;16.20;99.90
33139;DHT22;19501;50.948;5.316;2022-07-03T05:21:34;16.20;99.90
33139;DHT22;19501;50.948;5.316;2022-07-03T05:24:00;16.20;99.90
33139;DHT22;19501;50.948;5.316;2022-07-03T05:26:26;16.30;99.90
33139;DHT22;19501;50.948;5.316;2022-07-03T05:28:51;16.40;99.90
33139;DHT22;19501;50.948;5.316;2022-07-03T05:31:19;16.50;99.90
33139;DHT22;19501;50.948;5.316;2022-07-03T05:33:45;16.50;99.90
33139;DHT22;19501;50.948;5.316;2022-07-03T05:36:13;16.60;99.90
33139;DHT22;19501;50.948;5.316;2022-07-03T05:38:38;16.50;99.90
33139;DHT22;19501;50.948;5.316;2022-07-03T05:41:23;16.30;99.90
33139;DHT22;19501;50.948;5.316;2022-07-03T05:43:48;16.60;99.90
33139;DHT22;19501;50.948;5.316;2022-07-03T05:46:14;16.60;99.90
33139;DHT22;19501;50.948;5.316;2022-07-03T05:48:40;16.60;99.90
33139;DHT22;19501;50.948;5.316;2022-07-03T05:51:05;16.60;99.90
33139;DHT22;19501;50.948;5.316;2022-07-03T05:53:32;16.70;99.90
33139;DHT22;19501;50.948;5.316;2022-07-03T05:55:58;16.70;99.90
33139;DHT22;19501;50.948;5.316;2022-07-03T05:58:24;16.70;99.90
33139;DHT22;19501;50.948;5.316;2022-07-03T06:00:50;16.80;99.90
33139;DHT22;19501;50.948;5.316;2022-07-03T06:03:16;16.90;99.90
33139;DHT22;19501;50.948;5.316;2022-07-03T06:05:42;16.90;99.90
33139;DHT22;19501;50.948;5.316;2022-07-03T06:08:08;17.00;99.90
33139;DHT22;19501;50.948;5.316;2022-07-03T06:10:34;17.00;99.90
33139;DHT22;19501;50.948;5.316;2022-07-03T06:13:01;17.00;99.90
33139;DHT22;19501;50.948;5.316;2022-07-03T06:15:27;17.10;99.90
33139;DHT22;19501;50.948;5.316;2022-07-03T06:17:53;17.20;99.90
33139;DHT22;19501;50.948;5.316;2022-07-03T06:20:18;17.30;99.90
33139;DHT22;19501;50.948;5.316;2022-07-03T06:22:44;17.30;99.90
33139;DHT22;19501;50.948;5.316;2022-07-03T06:25:11;17.40;99.90
33139;DHT22;19501;50.948;5.316;2022-07-03T06:27:39;17.50;99.90
33139;DHT22;19501;50.948;5.316;2022-07-03T06:30:05;17.40;99.90
33139;DHT22;19501;50.948;5.316;2022-07-03T06:32:32;17.50;99.90
33139;DHT22;19501;50.948;5.316;2022-07-03T06:34:58;17.40;99.90
33139;DHT22;19501;50.948;5.316;2022-07-03T06:37:24;17.50;99.90
33139;DHT22;19501;50.948;5.316;2022-07-03T06:39:50;17.60;99.90
33139;DHT22;19501;50.948;5.316;2022-07-03T06:42:15;17.70;99.90
33139;DHT22;19501;50.948;5.316;2022-07-03T06:44:41;17.70;99.90
33139;DHT22;19501;50.948;5.316;2022-07-03T06:47:07;17.60;99.90
33139;DHT22;19501;50.948;5.316;2022-07-03T06:49:33;17.60;99.90
33139;DHT22;19501;50.948;5.316;2022-07-03T06:52:00;17.70;99.90
33139;DHT22;19501;50.948;5.316;2022-07-03T06:54:25;17.70;99.90
33139;DHT22;19501;50.948;5.316;2022-07-03T06:56:51;17.80;99.90
33139;DHT22;19501;50.948;5.316;2022-07-03T06:59:17;17.80;99.90
33139;DHT22;19501;50.948;5.316;2022-07-03T07:01:43;17.80;99.90
33139;DHT22;19501;50.948;5.316;2022-07-03T07:04:12;17.90;99.90
33139;DHT22;19501;50.948;5.316;2022-07-03T07:06:37;18.10;99.90
33139;DHT22;19501;50.948;5.316;2022-07-03T07:09:04;18.20;99.90
33139;DHT22;19501;50.948;5.316;2022-07-03T07:11:30;18.20;99.90
33139;DHT22;19501;50.948;5.316;2022-07-03T07:13:56;18.30;99.90
33139;DHT22;19501;50.948;5.316;2022-07-03T07:16:22;18.30;99.90
33139;DHT22;19501;50.948;5.316;2022-07-03T07:18:47;18.40;99.90
33139;DHT22;19501;50.948;5.316;2022-07-03T07:21:13;18.40;99.90
33139;DHT22;19501;50.948;5.316;2022-07-03T07:23:39;18.40;99.90
33139;DHT22;19501;50.948;5.316;2022-07-03T07:26:04;18.50;99.90
33139;DHT22;19501;50.948;5.316;2022-07-03T07:28:31;18.50;99.90
33139;DHT22;19501;50.948;5.316;2022-07-03T07:30:59;18.50;99.90
33139;DHT22;19501;50.948;5.316;2022-07-03T07:33:24;18.70;99.90
33139;DHT22;19501;50.948;5.316;2022-07-03T07:35:52;18.80;99.90
33139;DHT22;19501;50.948;5.316;2022-07-03T07:38:18;18.80;99.90
33139;DHT22;19501;50.948;5.316;2022-07-03T07:40:44;18.80;99.90
33139;DHT22;19501;50.948;5.316;2022-07-03T07:43:10;18.80;99.90
33139;DHT22;19501;50.948;5.316;2022-07-03T07:45:36;18.80;99.90
33139;DHT22;19501;50.948;5.316;2022-07-03T07:48:02;18.80;99.90
33139;DHT22;19501;50.948;5.316;2022-07-03T07:50:28;18.90;99.90
33139;DHT22;19501;50.948;5.316;2022-07-03T07:52:54;19.00;99.90
33139;DHT22;19501;50.948;5.316;2022-07-03T07:55:20;19.20;99.90
33139;DHT22;19501;50.948;5.316;2022-07-03T07:57:47;19.20;99.90
33139;DHT22;19501;50.948;5.316;2022-07-03T08:00:15;19.20;99.90
33139;DHT22;19501;50.948;5.316;2022-07-03T08:02:42;19.30;99.90
33139;DHT22;19501;50.948;5.316;2022-07-03T08:05:26;19.30;99.90
33139;DHT22;19501;50.948;5.316;2022-07-03T08:10:28;19.20;99.90
33139;DHT22;19501;50.948;5.316;2022-07-03T08:12:54;19.20;99.90
33139;DHT22;19501;50.948;5.316;2022-07-03T08:15:20;19.40;99.90
33139;DHT22;19501;50.948;5.316;2022-07-03T08:17:45;19.50;99.90
33139;DHT22;19501;50.948;5.316;2022-07-03T08:20:11;19.50;99.90
33139;DHT22;19501;50.948;5.316;2022-07-03T08:22:37;19.70;99.90
33139;DHT22;19501;50.948;5.316;2022-07-03T08:25:03;19.70;99.90
33139;DHT22;19501;50.948;5.316;2022-07-03T08:27:29;19.70;99.90
33139;DHT22;19501;50.948;5.316;2022-07-03T08:29:54;19.70;99.90
33139;DHT22;19501;50.948;5.316;2022-07-03T08:32:20;19.50;99.90
33139;DHT22;19501;50.948;5.316;2022-07-03T08:34:46;19.70;99.90
33139;DHT22;19501;50.948;5.316;2022-07-03T08:37:14;20.00;99.90
33139;DHT22;19501;50.948;5.316;2022-07-03T08:39:41;20.10;99.90
33139;DHT22;19501;50.948;5.316;2022-07-03T08:42:07;20.30;99.90
33139;DHT22;19501;50.948;5.316;2022-07-03T08:44:36;20.30;99.90
33139;DHT22;19501;50.948;5.316;2022-07-03T08:47:03;20.40;99.90
33139;DHT22;19501;50.948;5.316;2022-07-03T08:49:29;20.50;99.90
33139;DHT22;19501;50.948;5.316;2022-07-03T08:51:55;20.60;99.90
33139;DHT22;19501;50.948;5.316;2022-07-03T08:54:22;20.50;99.90
33139;DHT22;19501;50.948;5.316;2022-07-03T08:56:48;20.50;99.90
33139;DHT22;19501;50.948;5.316;2022-07-03T08:59:15;20.60;99.90
33139;DHT22;19501;50.948;5.316;2022-07-03T09:01:42;20.40;99.90
33139;DHT22;19501;50.948;5.316;2022-07-03T09:04:12;20.60;99.90
33139;DHT22;19501;50.948;5.316;2022-07-03T09:06:42;20.80;99.90
33139;DHT22;19501;50.948;5.316;2022-07-03T09:09:09;20.90;99.90
33139;DHT22;19501;50.948;5.316;2022-07-03T09:11:38;20.90;99.90
33139;DHT22;19501;50.948;5.316;2022-07-03T09:14:04;20.70;99.90
33139;DHT22;19501;50.948;5.316;2022-07-03T09:16:36;20.90;99.90
33139;DHT22;19501;50.948;5.316;2022-07-03T09:19:02;21.10;99.90
33139;DHT22;19501;50.948;5.316;2022-07-03T09:24:07;21.30;99.90
33139;DHT22;19501;50.948;5.316;2022-07-03T09:26:33;21.10;99.90
33139;DHT22;19501;50.948;5.316;2022-07-03T09:28:59;21.20;99.90
33139;DHT22;19501;50.948;5.316;2022-07-03T09:31:27;21.40;99.90
33139;DHT22;19501;50.948;5.316;2022-07-03T09:36:46;21.40;99.90
33139;DHT22;19501;50.948;5.316;2022-07-03T09:41:51;21.50;99.90
33139;DHT22;19501;50.948;5.316;2022-07-03T09:44:37;21.50;99.90
33139;DHT22;19501;50.948;5.316;2022-07-03T09:54:56;21.80;99.90
33139;DHT22;19501;50.948;5.316;2022-07-03T09:57:23;21.80;99.90
33139;DHT22;19501;50.948;5.316;2022-07-03T09:59:49;21.70;99.90
33139;DHT22;19501;50.948;5.316;2022-07-03T10:02:15;21.70;99.90
33139;DHT22;19501;50.948;5.316;2022-07-03T10:04:41;21.80;99.90
33139;DHT22;19501;50.948;5.316;2022-07-03T10:07:07;22.10;99.90
33139;DHT22;19501;50.948;5.316;2022-07-03T10:09:34;21.90;99.90
33139;DHT22;19501;50.948;5.316;2022-07-03T10:12:01;22.30;99.90
33139;DHT22;19501;50.948;5.316;2022-07-03T10:14:29;22.10;99.90
33139;DHT22;19501;50.948;5.316;2022-07-03T10:16:56;22.30;99.90
33139;DHT22;19501;50.948;5.316;2022-07-03T10:19:27;22.70;99.90
33139;DHT22;19501;50.948;5.316;2022-07-03T10:22:16;23.00;99.90
33139;DHT22;19501;50.948;5.316;2022-07-03T10:24:42;22.90;99.90
33139;DHT22;19501;50.948;5.316;2022-07-03T10:27:09;22.60;99.90
33139;DHT22;19501;50.948;5.316;2022-07-03T10:29:36;22.40;99.90
33139;DHT22;19501;50.948;5.316;2022-07-03T10:32:06;22.70;99.90
33139;DHT22;19501;50.948;5.316;2022-07-03T10:34:33;23.00;99.90
33139;DHT22;19501;50.948;5.316;2022-07-03T10:37:02;23.10;99.80
33139;DHT22;19501;50.948;5.316;2022-07-03T10:40:07;23.00;99.90
33139;DHT22;19501;50.948;5.316;2022-07-03T10:43:00;22.70;99.90
33139;DHT22;19501;50.948;5.316;2022-07-03T10:46:10;22.20;99.90
33139;DHT22;19501;50.948;5.316;2022-07-03T10:51:18;22.70;99.90
33139;DHT22;19501;50.948;5.316;2022-07-03T10:53:44;22.90;99.90
33139;DHT22;19501;50.948;5.316;2022-07-03T10:56:10;23.10;99.90
33139;DHT22;19501;50.948;5.316;2022-07-03T10:58:58;23.20;99.40
33139;DHT22;19501;50.948;5.316;2022-07-03T11:01:28;23.10;99.90
33139;DHT22;19501;50.948;5.316;2022-07-03T11:03:58;23.40;99.90
33139;DHT22;19501;50.948;5.316;2022-07-03T11:09:21;24.80;98.80
33139;DHT22;19501;50.948;5.316;2022-07-03T11:11:50;24.40;97.60
33139;DHT22;19501;50.948;5.316;2022-07-03T11:14:26;24.80;97.60
33139;DHT22;19501;50.948;5.316;2022-07-03T11:17:18;25.10;98.30
33139;DHT22;19501;50.948;5.316;2022-07-03T11:19:45;26.00;96.50
33139;DHT22;19501;50.948;5.316;2022-07-03T11:22:51;25.80;94.70
33139;DHT22;19501;50.948;5.316;2022-07-03T11:25:17;25.70;96.30
33139;DHT22;19501;50.948;5.316;2022-07-03T11:27:43;26.20;95.80
33139;DHT22;19501;50.948;5.316;2022-07-03T11:30:08;26.60;94.60
33139;DHT22;19501;50.948;5.316;2022-07-03T11:32:49;25.70;94.80
33139;DHT22;19501;50.948;5.316;2022-07-03T11:38:08;26.00;94.80
33139;DHT22;19501;50.948;5.316;2022-07-03T11:40:36;25.30;94.80
33139;DHT22;19501;50.948;5.316;2022-07-03T11:43:05;25.10;95.00
33139;DHT22;19501;50.948;5.316;2022-07-03T11:45:31;25.80;95.10
33139;DHT22;19501;50.948;5.316;2022-07-03T11:47:57;26.10;94.80
33139;DHT22;19501;50.948;5.316;2022-07-03T11:50:39;26.10;95.40
33139;DHT22;19501;50.948;5.316;2022-07-03T11:53:24;26.70;94.60
33139;DHT22;19501;50.948;5.316;2022-07-03T11:55:52;26.80;94.30
33139;DHT22;19501;50.948;5.316;2022-07-03T11:58:19;26.20;93.80
33139;DHT22;19501;50.948;5.316;2022-07-03T12:00:45;26.90;93.40
33139;DHT22;19501;50.948;5.316;2022-07-03T12:03:17;27.50;91.90
33139;DHT22;19501;50.948;5.316;2022-07-03T12:05:57;26.80;92.40
33139;DHT22;19501;50.948;5.316;2022-07-03T12:08:33;26.30;92.40
33139;DHT22;19501;50.948;5.316;2022-07-03T12:11:05;26.70;93.80
33139;DHT22;19501;50.948;5.316;2022-07-03T12:13:31;26.90;93.00
33139;DHT22;19501;50.948;5.316;2022-07-03T12:16:10;27.30;93.00
33139;DHT22;19501;50.948;5.316;2022-07-03T12:21:08;25.90;93.40
33139;DHT22;19501;50.948;5.316;2022-07-03T12:23:44;25.30;93.60
33139;DHT22;19501;50.948;5.316;2022-07-03T12:26:11;24.50;94.40
33139;DHT22;19501;50.948;5.316;2022-07-03T12:28:38;25.10;95.30
33139;DHT22;19501;50.948;5.316;2022-07-03T12:31:05;25.50;93.70
33139;DHT22;19501;50.948;5.316;2022-07-03T12:33:32;25.70;94.40
33139;DHT22;19501;50.948;5.316;2022-07-03T12:36:08;26.20;93.60
33139;DHT22;19501;50.948;5.316;2022-07-03T12:38:36;26.20;93.50
33139;DHT22;19501;50.948;5.316;2022-07-03T12:41:06;25.80;93.20
33139;DHT22;19501;50.948;5.316;2022-07-03T12:43:42;25.10;94.10
33139;DHT22;19501;50.948;5.316;2022-07-03T12:46:25;24.20;94.50
33139;DHT22;19501;50.948;5.316;2022-07-03T12:48:56;24.30;94.90
33139;DHT22;19501;50.948;5.316;2022-07-03T12:51:47;25.60;93.90
33139;DHT22;19501;50.948;5.316;2022-07-03T12:54:21;26.20;92.70
33139;DHT22;19501;50.948;5.316;2022-07-03T12:57:05;26.30;94.10
33139;DHT22;19501;50.948;5.316;2022-07-03T13:00:10;26.90;93.00
33139;DHT22;19501;50.948;5.316;2022-07-03T13:02:46;26.60;92.20
33139;DHT22;19501;50.948;5.316;2022-07-03T13:05:19;26.50;91.80
33139;DHT22;19501;50.948;5.316;2022-07-03T13:07:51;27.10;92.60
33139;DHT22;19501;50.948;5.316;2022-07-03T13:10:20;27.50;91.40
33139;DHT22;19501;50.948;5.316;2022-07-03T13:12:53;26.70;91.10
33139;DHT22;19501;50.948;5.316;2022-07-03T13:15:20;26.80;90.80
33139;DHT22;19501;50.948;5.316;2022-07-03T13:20:19;26.70;92.00
33139;DHT22;19501;50.948;5.316;2022-07-03T13:22:47;26.70;91.20
33139;DHT22;19501;50.948;5.316;2022-07-03T13:25:13;26.10;92.00
33139;DHT22;19501;50.948;5.316;2022-07-03T13:27:39;25.70;91.70
33139;DHT22;19501;50.948;5.316;2022-07-03T13:30:05;25.70;92.30
33139;DHT22;19501;50.948;5.316;2022-07-03T13:32:31;24.70;91.70
33139;DHT22;19501;50.948;5.316;2022-07-03T13:34:57;25.10;92.40
33139;DHT22;19501;50.948;5.316;2022-07-03T13:37:22;25.30;91.30
33139;DHT22;19501;50.948;5.316;2022-07-03T13:39:50;25.20;90.80
33139;DHT22;19501;50.948;5.316;2022-07-03T13:42:16;25.10;91.30
33139;DHT22;19501;50.948;5.316;2022-07-03T13:44:43;25.30;91.70
33139;DHT22;19501;50.948;5.316;2022-07-03T13:47:08;25.00;90.90
33139;DHT22;19501;50.948;5.316;2022-07-03T13:49:34;24.90;91.50
33139;DHT22;19501;50.948;5.316;2022-07-03T13:52:00;25.20;90.90
33139;DHT22;19501;50.948;5.316;2022-07-03T13:54:26;24.90;91.60
33139;DHT22;19501;50.948;5.316;2022-07-03T13:56:51;24.90;90.80
33139;DHT22;19501;50.948;5.316;2022-07-03T13:59:20;25.20;90.40
33139;DHT22;19501;50.948;5.316;2022-07-03T14:01:47;25.50;91.60
33139;DHT22;19501;50.948;5.316;2022-07-03T14:04:13;25.70;91.00
33139;DHT22;19501;50.948;5.316;2022-07-03T14:06:38;25.30;89.80
33139;DHT22;19501;50.948;5.316;2022-07-03T14:09:05;25.20;90.80
33139;DHT22;19501;50.948;5.316;2022-07-03T14:11:33;25.60;89.20
33139;DHT22;19501;50.948;5.316;2022-07-03T14:14:01;25.90;90.00
33139;DHT22;19501;50.948;5.316;2022-07-03T14:16:26;26.00;89.00
33139;DHT22;19501;50.948;5.316;2022-07-03T14:18:52;26.00;87.40
33139;DHT22;19501;50.948;5.316;2022-07-03T14:21:18;25.80;89.10
33139;DHT22;19501;50.948;5.316;2022-07-03T14:23:46;26.30;89.00
33139;DHT22;19501;50.948;5.316;2022-07-03T14:26:12;25.50;88.40
33139;DHT22;19501;50.948;5.316;2022-07-03T14:28:38;24.90;87.30
33139;DHT22;19501;50.948;5.316;2022-07-03T14:31:24;24.80;88.80
33139;DHT22;19501;50.948;5.316;2022-07-03T14:34:08;24.90;89.50
33139;DHT22;19501;50.948;5.316;2022-07-03T14:36:36;25.00;90.50
33139;DHT22;19501;50.948;5.316;2022-07-03T14:39:02;25.30;90.10
33139;DHT22;19501;50.948;5.316;2022-07-03T14:41:28;25.50;88.20
33139;DHT22;19501;50.948;5.316;2022-07-03T14:43:54;25.30;90.00
33139;DHT22;19501;50.948;5.316;2022-07-03T14:46:19;25.40;87.80
33139;DHT22;19501;50.948;5.316;2022-07-03T14:48:46;25.30;87.50
33139;DHT22;19501;50.948;5.316;2022-07-03T14:51:12;25.50;88.90
33139;DHT22;19501;50.948;5.316;2022-07-03T14:53:38;25.20;87.20
33139;DHT22;19501;50.948;5.316;2022-07-03T14:56:04;24.90;87.80
33139;DHT22;19501;50.948;5.316;2022-07-03T14:58:31;25.10;87.70
33139;DHT22;19501;50.948;5.316;2022-07-03T15:00:58;25.10;86.90
33139;DHT22;19501;50.948;5.316;2022-07-03T15:03:33;25.10;88.20
33139;DHT22;19501;50.948;5.316;2022-07-03T15:06:02;25.40;90.20
33139;DHT22;19501;50.948;5.316;2022-07-03T15:10:56;25.00;87.30
33139;DHT22;19501;50.948;5.316;2022-07-03T15:13:27;25.10;88.50
33139;DHT22;19501;50.948;5.316;2022-07-03T15:15:53;25.10;87.10
33139;DHT22;19501;50.948;5.316;2022-07-03T15:18:20;24.70;87.30
33139;DHT22;19501;50.948;5.316;2022-07-03T15:20:47;24.70;89.40
33139;DHT22;19501;50.948;5.316;2022-07-03T15:23:12;24.70;88.70
33139;DHT22;19501;50.948;5.316;2022-07-03T15:25:39;24.70;88.30
33139;DHT22;19501;50.948;5.316;2022-07-03T15:28:09;24.30;87.30
33139;DHT22;19501;50.948;5.316;2022-07-03T15:30:36;24.60;87.20
33139;DHT22;19501;50.948;5.316;2022-07-03T15:33:02;24.70;87.80
33139;DHT22;19501;50.948;5.316;2022-07-03T15:35:29;25.00;88.60
33139;DHT22;19501;50.948;5.316;2022-07-03T15:38:37;25.30;90.00
33139;DHT22;19501;50.948;5.316;2022-07-03T15:41:06;25.60;87.10
33139;DHT22;19501;50.948;5.316;2022-07-03T15:49:30;25.10;88.60
33139;DHT22;19501;50.948;5.316;2022-07-03T15:57:53;24.70;89.10
33139;DHT22;19501;50.948;5.316;2022-07-03T16:00:23;25.10;90.20
33139;DHT22;19501;50.948;5.316;2022-07-03T16:03:28;25.50;88.10
33139;DHT22;19501;50.948;5.316;2022-07-03T16:06:02;25.50;87.00
33139;DHT22;19501;50.948;5.316;2022-07-03T16:08:31;25.30;87.10
33139;DHT22;19501;50.948;5.316;2022-07-03T16:10:59;25.30;87.90
33139;DHT22;19501;50.948;5.316;2022-07-03T16:13:26;25.00;87.50
33139;DHT22;19501;50.948;5.316;2022-07-03T16:15:56;25.10;88.50
33139;DHT22;19501;50.948;5.316;2022-07-03T16:18:24;25.30;88.60
33139;DHT22;19501;50.948;5.316;2022-07-03T16:20:50;25.50;89.70
33139;DHT22;19501;50.948;5.316;2022-07-03T16:23:16;25.50;87.10
33139;DHT22;19501;50.948;5.316;2022-07-03T16:25:42;25.60;88.00
33139;DHT22;19501;50.948;5.316;2022-07-03T16:28:10;25.80;89.20
33139;DHT22;19501;50.948;5.316;2022-07-03T16:30:49;25.70;85.50
33139;DHT22;19501;50.948;5.316;2022-07-03T16:33:27;25.80;87.70
33139;DHT22;19501;50.948;5.316;2022-07-03T16:35:55;25.50;86.40
33139;DHT22;19501;50.948;5.316;2022-07-03T16:38:59;25.30;86.90
33139;DHT22;19501;50.948;5.316;2022-07-03T16:41:29;25.10;86.50
33139;DHT22;19501;50.948;5.316;2022-07-03T16:43:56;24.90;88.70
33139;DHT22;19501;50.948;5.316;2022-07-03T16:46:25;24.90;86.90
33139;DHT22;19501;50.948;5.316;2022-07-03T16:48:53;24.70;86.40
33139;DHT22;19501;50.948;5.316;2022-07-03T16:51:23;24.60;87.60
33139;DHT22;19501;50.948;5.316;2022-07-03T16:53:49;24.90;86.60